Fort Pike — WAA9418 — position and weather

sailwx.info

Track history (hours):
 
Tides and Currents Weather Stations Pressure Air Temp Water Temp Dewpoint Dewpoint Depression Visibility Wind Speed Wind Dir Waves Ship Positions

Fort Pike

Owner: Salisbury Towing Corporation, Chesapeak, VA. More information available from US FCC via Universal Licensing System and Coast Guard Vessel Documentation Center.

Last reported at 2017-Jan-17 12:30 UTC. Time now 2017-Jan-17 13:07 UTC.
Position N 36°50' W 076°17'.

Length 18 m; draft 2.5 m.

Type: Tug. MMSI: 366948310.

Date/timePositionNaut miles runAvg speedWind from/ knotsBaromVisibWave heightAir tempDewpointWater temp
2017-Jan-17 12:30N 36°50' W 076°17'0 0.0
2017-Jan-17 11:18N 36°50' W 076°17'0 0.0
2017-Jan-17 10:33N 36°50' W 076°17'0 0.0
2017-Jan-17 09:33N 36°50' W 076°17'0 0.0
2017-Jan-17 08:33N 36°50' W 076°17'0 0.0
2017-Jan-17 07:33N 36°50' W 076°17'0 0.0
2017-Jan-17 06:33N 36°50' W 076°17'0 0.0
2017-Jan-17 05:33N 36°50' W 076°17'0 0.0
2017-Jan-17 04:33N 36°50' W 076°17'0 0.0
2017-Jan-17 03:33N 36°50' W 076°17'0 0.0
2017-Jan-17 02:27N 36°50' W 076°17'0 0.0
2017-Jan-17 01:27N 36°50' W 076°17'0 0.0
2017-Jan-17 00:33N 36°50' W 076°17'1 1.2
2017-Jan-16 23:34N 36°50' W 076°16'0 0.2
2017-Jan-16 22:33N 36°50' W 076°16'1 0.8
2017-Jan-16 21:32N 36°50' W 076°15'4 4.4
2017-Jan-16 20:32N 36°51' W 076°20'4 4.4
2017-Jan-16 19:33N 36°50' W 076°15'0 0.1
2017-Jan-16 18:32N 36°50' W 076°15'0 0.0
2017-Jan-16 17:33N 36°50' W 076°15'0 0.0
2017-Jan-16 16:33N 36°50' W 076°15'0 0.0
2017-Jan-16 15:31N 36°50' W 076°15'0 0.0
2017-Jan-16 14:31N 36°50' W 076°15'2 1.9
2017-Jan-16 13:23N 36°50' W 076°17'0 0.0
2017-Jan-16 12:32N 36°50' W 076°17'0 0.0
2017-Jan-16 11:32N 36°50' W 076°17'0 0.0
2017-Jan-16 10:32N 36°50' W 076°17'0 0.0
2017-Jan-16 09:32N 36°50' W 076°17'0 0.0
2017-Jan-16 08:32N 36°50' W 076°17'0 0.0
2017-Jan-16 07:29N 36°50' W 076°17'0 0.0
2017-Jan-16 06:32N 36°50' W 076°17'0 0.0
2017-Jan-16 05:32N 36°50' W 076°17'0 0.0
2017-Jan-16 04:32N 36°50' W 076°17'0 0.0
2017-Jan-16 03:32N 36°50' W 076°17'0 0.0
2017-Jan-16 02:32N 36°50' W 076°17'0 0.0
2017-Jan-16 01:32N 36°50' W 076°17'0 0.0
2017-Jan-16 00:32N 36°50' W 076°17'0 0.0
2017-Jan-15 23:32N 36°50' W 076°17'0 0.0
2017-Jan-15 22:32N 36°50' W 076°17'0 0.0
2017-Jan-15 21:32N 36°50' W 076°17'0 0.0
2017-Jan-15 20:32N 36°50' W 076°17'0 0.0
2017-Jan-15 19:32N 36°50' W 076°17'0 0.0
2017-Jan-15 18:32N 36°50' W 076°17'0 0.0
2017-Jan-15 17:32N 36°50' W 076°17'0 0.0
2017-Jan-15 16:32N 36°50' W 076°17'0 0.0
2017-Jan-15 15:32N 36°50' W 076°17'0 0.0
2017-Jan-15 14:32N 36°50' W 076°17'0 0.0
2017-Jan-15 13:23N 36°50' W 076°17'0 0.0
2017-Jan-15 12:32N 36°50' W 076°17'0 0.0
2017-Jan-15 11:29N 36°50' W 076°17'0 0.0
2017-Jan-15 10:32N 36°50' W 076°17'0 0.1
2017-Jan-15 09:33N 36°50' W 076°18'0 0.4
2017-Jan-15 08:32N 36°50' W 076°17'4 3.9
2017-Jan-15 07:33N 36°53' W 076°20'2 0.1
2017-Jan-13 23:33N 36°51' W 076°19'3 2.5
2017-Jan-13 22:33N 36°50' W 076°16'1 0.8
2017-Jan-13 21:33N 36°50' W 076°15'3 3.0
2017-Jan-13 20:33N 36°48' W 076°17'2 2.3
2017-Jan-13 19:33N 36°50' W 076°16'1 0.5
2017-Jan-13 18:25N 36°50' W 076°16'0 0.0
2017-Jan-13 17:31N 36°50' W 076°16'1 0.9
2017-Jan-13 16:33N 36°50' W 076°15'2 2.3
2017-Jan-13 15:33N 36°50' W 076°17'0 0.0
2017-Jan-13 14:33N 36°50' W 076°17'0 0.0
2017-Jan-13 13:33N 36°50' W 076°17'0 0.0
2017-Jan-13 12:21N 36°50' W 076°17'0 0.0
2017-Jan-13 11:33N 36°50' W 076°17'0 0.0
2017-Jan-13 10:30N 36°50' W 076°17'0 0.0
2017-Jan-13 09:30N 36°50' W 076°17'0 0.0
2017-Jan-13 08:33N 36°50' W 076°17'0 0.0
2017-Jan-13 07:33N 36°50' W 076°17'0 0.0
2017-Jan-13 06:33N 36°50' W 076°17'0 0.0
2017-Jan-13 05:33N 36°50' W 076°17'2 1.8
2017-Jan-13 04:33N 36°49' W 076°17'3 2.6
2017-Jan-13 03:31N 36°50' W 076°15'1 0.8
2017-Jan-13 02:33N 36°50' W 076°16'0 0.1
2017-Jan-13 01:33N 36°50' W 076°16'4 4.5
2017-Jan-13 00:33N 36°53' W 076°20'2 0.6
2017-Jan-12 21:32N 36°55' W 076°20'6 5.8
2017-Jan-12 20:31N 36°50' W 076°16'1 1.4
2017-Jan-12 19:31N 36°50' W 076°17'0 0.0
2017-Jan-12 18:31N 36°50' W 076°17'0 0.0
2017-Jan-12 17:28N 36°50' W 076°17'0 0.0
2017-Jan-12 16:31N 36°50' W 076°17'0 0.0
2017-Jan-12 15:31N 36°50' W 076°17'0 0.0
2017-Jan-12 14:31N 36°50' W 076°17'0 0.0
2017-Jan-12 13:31N 36°50' W 076°17'0 0.0
2017-Jan-12 12:31N 36°50' W 076°17'0 0.0
2017-Jan-12 11:31N 36°50' W 076°17'0 0.0
2017-Jan-12 10:31N 36°50' W 076°17'1 1.3
2017-Jan-12 09:29N 36°50' W 076°16'3 2.9
2017-Jan-12 08:33N 36°48' W 076°17'5 4.6
2017-Jan-12 07:32N 36°44' W 076°16'10 0.3
2017-Jan-10 19:33N 36°41' W 076°04'5 4.1
2017-Jan-10 18:19N 36°43' W 076°10'3 3.0
2017-Jan-10 17:21N 36°43' W 076°14'2 2.8
2017-Jan-10 16:33N 36°44' W 076°16'4 3.9
2017-Jan-10 15:33N 36°47' W 076°18'3 3.4
2017-Jan-10 14:32N 36°50' W 076°16'2 1.8
2017-Jan-10 13:33N 36°49' W 076°17'0 0.0
2017-Jan-10 12:33N 36°49' W 076°17'0 0.0
2017-Jan-10 11:33N 36°49' W 076°17'1 1.2
2017-Jan-10 10:32N 36°50' W 076°17'0 0.0
2017-Jan-10 09:32N 36°50' W 076°17'0 0.0
2017-Jan-10 08:32N 36°50' W 076°17'0 0.0
2017-Jan-10 07:32N 36°50' W 076°17'0 0.0
2017-Jan-10 06:32N 36°50' W 076°17'1 1.4
2017-Jan-10 05:31N 36°50' W 076°16'1 0.6
2017-Jan-10 04:33N 36°50' W 076°16'4 3.8
2017-Jan-10 03:31N 36°53' W 076°20'  
Track history (hours):
 
Tides and Currents Weather Stations Pressure Air Temp Water Temp Dewpoint Dewpoint Depression Visibility Wind Speed Wind Dir Waves Ship Positions

Fort Pike

Owner: Salisbury Towing Corporation, Chesapeak, VA. More information available from US FCC via Universal Licensing System and Coast Guard Vessel Documentation Center.

Last reported at 2017-Jan-17 12:30 UTC. Time now 2017-Jan-17 13:07 UTC.
Position N 36°50' W 076°17'.

Length 18 m; draft 2.5 m.

Type: Tug. MMSI: 366948310.

Date/timePositionNaut miles runAvg speedWind from/ knotsBaromVisibWave heightAir tempDewpointWater temp
2017-Jan-17 12:30N 36°50' W 076°17'0 0.0
2017-Jan-17 11:18N 36°50' W 076°17'0 0.0
2017-Jan-17 10:33N 36°50' W 076°17'0 0.0
2017-Jan-17 09:33N 36°50' W 076°17'0 0.0
2017-Jan-17 08:33N 36°50' W 076°17'0 0.0
2017-Jan-17 07:33N 36°50' W 076°17'0 0.0
2017-Jan-17 06:33N 36°50' W 076°17'0 0.0
2017-Jan-17 05:33N 36°50' W 076°17'0 0.0
2017-Jan-17 04:33N 36°50' W 076°17'0 0.0
2017-Jan-17 03:33N 36°50' W 076°17'0 0.0
2017-Jan-17 02:27N 36°50' W 076°17'0 0.0
2017-Jan-17 01:27N 36°50' W 076°17'0 0.0
2017-Jan-17 00:33N 36°50' W 076°17'1 1.2
2017-Jan-16 23:34N 36°50' W 076°16'0 0.2
2017-Jan-16 22:33N 36°50' W 076°16'1 0.8
2017-Jan-16 21:32N 36°50' W 076°15'4 4.4
2017-Jan-16 20:32N 36°51' W 076°20'4 4.4
2017-Jan-16 19:33N 36°50' W 076°15'0 0.1
2017-Jan-16 18:32N 36°50' W 076°15'0 0.0
2017-Jan-16 17:33N 36°50' W 076°15'0 0.0
2017-Jan-16 16:33N 36°50' W 076°15'0 0.0
2017-Jan-16 15:31N 36°50' W 076°15'0 0.0
2017-Jan-16 14:31N 36°50' W 076°15'2 1.9
2017-Jan-16 13:23N 36°50' W 076°17'0 0.0
2017-Jan-16 12:32N 36°50' W 076°17'0 0.0
2017-Jan-16 11:32N 36°50' W 076°17'0 0.0
2017-Jan-16 10:32N 36°50' W 076°17'0 0.0
2017-Jan-16 09:32N 36°50' W 076°17'0 0.0
2017-Jan-16 08:32N 36°50' W 076°17'0 0.0
2017-Jan-16 07:29N 36°50' W 076°17'0 0.0
2017-Jan-16 06:32N 36°50' W 076°17'0 0.0
2017-Jan-16 05:32N 36°50' W 076°17'0 0.0
2017-Jan-16 04:32N 36°50' W 076°17'0 0.0
2017-Jan-16 03:32N 36°50' W 076°17'0 0.0
2017-Jan-16 02:32N 36°50' W 076°17'0 0.0
2017-Jan-16 01:32N 36°50' W 076°17'0 0.0
2017-Jan-16 00:32N 36°50' W 076°17'0 0.0
2017-Jan-15 23:32N 36°50' W 076°17'0 0.0
2017-Jan-15 22:32N 36°50' W 076°17'0 0.0
2017-Jan-15 21:32N 36°50' W 076°17'0 0.0
2017-Jan-15 20:32N 36°50' W 076°17'0 0.0
2017-Jan-15 19:32N 36°50' W 076°17'0 0.0
2017-Jan-15 18:32N 36°50' W 076°17'0 0.0
2017-Jan-15 17:32N 36°50' W 076°17'0 0.0
2017-Jan-15 16:32N 36°50' W 076°17'0 0.0
2017-Jan-15 15:32N 36°50' W 076°17'0 0.0
2017-Jan-15 14:32N 36°50' W 076°17'0 0.0
2017-Jan-15 13:23N 36°50' W 076°17'0 0.0
2017-Jan-15 12:32N 36°50' W 076°17'0 0.0
2017-Jan-15 11:29N 36°50' W 076°17'0 0.0
2017-Jan-15 10:32N 36°50' W 076°17'0 0.1
2017-Jan-15 09:33N 36°50' W 076°18'0 0.4
2017-Jan-15 08:32N 36°50' W 076°17'4 3.9
2017-Jan-15 07:33N 36°53' W 076°20'2 0.1
2017-Jan-13 23:33N 36°51' W 076°19'3 2.5
2017-Jan-13 22:33N 36°50' W 076°16'1 0.8
2017-Jan-13 21:33N 36°50' W 076°15'3 3.0
2017-Jan-13 20:33N 36°48' W 076°17'2 2.3
2017-Jan-13 19:33N 36°50' W 076°16'1 0.5
2017-Jan-13 18:25N 36°50' W 076°16'0 0.0
2017-Jan-13 17:31N 36°50' W 076°16'1 0.9
2017-Jan-13 16:33N 36°50' W 076°15'2 2.3
2017-Jan-13 15:33N 36°50' W 076°17'0 0.0
2017-Jan-13 14:33N 36°50' W 076°17'0 0.0
2017-Jan-13 13:33N 36°50' W 076°17'0 0.0
2017-Jan-13 12:21N 36°50' W 076°17'0 0.0
2017-Jan-13 11:33N 36°50' W 076°17'0 0.0
2017-Jan-13 10:30N 36°50' W 076°17'0 0.0
2017-Jan-13 09:30N 36°50' W 076°17'0 0.0
2017-Jan-13 08:33N 36°50' W 076°17'0 0.0
2017-Jan-13 07:33N 36°50' W 076°17'0 0.0
2017-Jan-13 06:33N 36°50' W 076°17'0 0.0
2017-Jan-13 05:33N 36°50' W 076°17'2 1.8
2017-Jan-13 04:33N 36°49' W 076°17'3 2.6
2017-Jan-13 03:31N 36°50' W 076°15'1 0.8
2017-Jan-13 02:33N 36°50' W 076°16'0 0.1
2017-Jan-13 01:33N 36°50' W 076°16'4 4.5
2017-Jan-13 00:33N 36°53' W 076°20'2 0.6
2017-Jan-12 21:32N 36°55' W 076°20'6 5.8
2017-Jan-12 20:31N 36°50' W 076°16'1 1.4
2017-Jan-12 19:31N 36°50' W 076°17'0 0.0
2017-Jan-12 18:31N 36°50' W 076°17'0 0.0
2017-Jan-12 17:28N 36°50' W 076°17'0 0.0
2017-Jan-12 16:31N 36°50' W 076°17'0 0.0
2017-Jan-12 15:31N 36°50' W 076°17'0 0.0
2017-Jan-12 14:31N 36°50' W 076°17'0 0.0
2017-Jan-12 13:31N 36°50' W 076°17'0 0.0
2017-Jan-12 12:31N 36°50' W 076°17'0 0.0
2017-Jan-12 11:31N 36°50' W 076°17'0 0.0
2017-Jan-12 10:31N 36°50' W 076°17'1 1.3
2017-Jan-12 09:29N 36°50' W 076°16'3 2.9
2017-Jan-12 08:33N 36°48' W 076°17'5 4.6
2017-Jan-12 07:32N 36°44' W 076°16'10 0.3
2017-Jan-10 19:33N 36°41' W 076°04'5 4.1
2017-Jan-10 18:19N 36°43' W 076°10'3 3.0
2017-Jan-10 17:21N 36°43' W 076°14'2 2.8
2017-Jan-10 16:33N 36°44' W 076°16'4 3.9
2017-Jan-10 15:33N 36°47' W 076°18'3 3.4
2017-Jan-10 14:32N 36°50' W 076°16'2 1.8
2017-Jan-10 13:33N 36°49' W 076°17'0 0.0
2017-Jan-10 12:33N 36°49' W 076°17'0 0.0
2017-Jan-10 11:33N 36°49' W 076°17'1 1.2
2017-Jan-10 10:32N 36°50' W 076°17'0 0.0
2017-Jan-10 09:32N 36°50' W 076°17'0 0.0
2017-Jan-10 08:32N 36°50' W 076°17'0 0.0
2017-Jan-10 07:32N 36°50' W 076°17'0 0.0
2017-Jan-10 06:32N 36°50' W 076°17'1 1.4
2017-Jan-10 05:31N 36°50' W 076°16'1 0.6
2017-Jan-10 04:33N 36°50' W 076°16'4 3.8
2017-Jan-10 03:31N 36°53' W 076°20'  

Dump ship's entire track history